createdAt,value
2023-01-11T00:01:38.082Z,3.69
2023-01-11T00:06:40.621Z,3.69
2023-01-11T00:11:43.512Z,3.69
2023-01-11T00:16:46.156Z,3.71
2023-01-11T00:21:49.677Z,3.71
2023-01-11T00:26:52.405Z,3.71
2023-01-11T00:31:55.187Z,3.70
2023-01-11T00:36:58.186Z,3.69
2023-01-11T00:42:19.632Z,3.67
2023-01-11T00:47:41.093Z,3.66
2023-01-11T00:52:43.586Z,3.65
2023-01-11T00:57:46.289Z,3.65
2023-01-11T01:02:49.970Z,3.65
2023-01-11T01:07:52.704Z,3.67
2023-01-11T01:13:14.078Z,3.68
2023-01-11T01:18:16.692Z,3.69
2023-01-11T01:23:19.209Z,3.69
2023-01-11T01:28:22.352Z,3.71
2023-01-11T01:33:25.165Z,3.71
2023-01-11T01:38:28.333Z,3.69
2023-01-11T01:43:51.654Z,3.66
2023-01-11T01:49:01.871Z,3.62
2023-01-11T01:54:08.308Z,3.60
2023-01-11T01:59:15.527Z,3.59
2023-01-11T02:04:26.664Z,3.60
2023-01-11T02:09:38.816Z,3.61
2023-01-11T02:14:43.176Z,3.65
2023-01-11T02:20:17.824Z,3.67
2023-01-11T02:25:52.598Z,3.69
2023-01-11T02:31:16.096Z,3.72
2023-01-11T02:36:37.746Z,3.75
2023-01-11T02:42:17.900Z,3.78
2023-01-11T02:47:30.226Z,3.83
2023-01-11T02:52:39.899Z,3.88
2023-01-11T02:57:44.960Z,3.92
2023-01-11T03:02:47.509Z,3.95
2023-01-11T03:08:31.160Z,4.00
2023-01-11T03:14:01.589Z,4.07
2023-01-11T03:19:26.283Z,4.15
2023-01-11T03:24:45.781Z,4.21
2023-01-11T03:30:07.881Z,4.27
2023-01-11T03:35:37.852Z,4.30
2023-01-11T03:40:46.649Z,4.32
2023-01-11T03:46:05.543Z,4.34
2023-01-11T03:51:12.533Z,4.36
2023-01-11T03:56:20.207Z,4.38
2023-01-11T04:01:24.560Z,4.40
2023-01-11T04:06:27.178Z,4.41
2023-01-11T04:11:29.790Z,4.44
2023-01-11T04:16:32.343Z,4.45
2023-01-11T04:21:35.051Z,4.47
2023-01-11T04:26:37.588Z,4.47
2023-01-11T04:31:40.222Z,4.49
2023-01-11T04:36:42.810Z,4.49
2023-01-11T04:42:04.214Z,4.51
2023-01-11T04:47:06.719Z,4.53
2023-01-11T04:52:14.713Z,4.54
2023-01-11T04:57:17.689Z,4.55
2023-01-11T05:02:20.371Z,4.56
2023-01-11T05:07:22.923Z,4.57
2023-01-11T05:12:25.498Z,4.58
2023-01-11T05:17:28.241Z,4.60
2023-01-11T05:22:30.868Z,4.60
2023-01-11T05:27:33.599Z,4.61
2023-01-11T05:32:36.306Z,4.62
2023-01-11T05:37:39.013Z,4.62
2023-01-11T05:42:41.689Z,4.62
2023-01-11T05:47:44.188Z,4.63
2023-01-11T05:52:47.128Z,4.62
2023-01-11T05:57:51.079Z,4.62
2023-01-11T06:02:54.259Z,4.63
2023-01-11T06:07:57.225Z,4.62
2023-01-11T06:13:18.669Z,4.60
2023-01-11T06:18:21.527Z,4.59
2023-01-11T06:23:25.605Z,4.60
2023-01-11T06:28:28.230Z,4.61
2023-01-11T06:33:31.454Z,4.63
2023-01-11T06:38:34.925Z,4.63
2023-01-11T06:43:42.210Z,4.64
2023-01-11T06:48:46.241Z,4.65
2023-01-11T06:53:48.829Z,4.65
2023-01-11T06:58:52.605Z,4.65
2023-01-11T07:03:55.470Z,4.64
2023-01-11T07:08:58.541Z,4.66
2023-01-11T07:14:01.146Z,4.68
2023-01-11T07:19:03.736Z,4.71
2023-01-11T07:24:06.494Z,4.75
2023-01-11T07:29:09.195Z,4.78
2023-01-11T07:34:12.195Z,4.82
2023-01-11T07:39:15.489Z,4.87
2023-01-11T07:44:18.463Z,4.91
2023-01-11T07:49:21.278Z,4.95
2023-01-11T07:54:24.795Z,4.99
2023-01-11T07:59:27.330Z,5.03
2023-01-11T08:04:30.236Z,5.08
2023-01-11T08:09:32.847Z,5.12
2023-01-11T08:14:41.323Z,5.17
2023-01-11T08:19:43.950Z,5.23
2023-01-11T08:24:46.620Z,5.27
2023-01-11T08:29:49.176Z,5.31
2023-01-11T08:34:51.739Z,5.35
2023-01-11T08:39:55.941Z,5.39
2023-01-11T08:44:58.626Z,5.44
2023-01-11T08:50:01.213Z,5.49
2023-01-11T08:55:07.693Z,5.49
2023-01-11T09:00:11.312Z,5.42
2023-01-11T09:05:13.942Z,5.37
2023-01-11T09:10:16.516Z,5.35
2023-01-11T09:15:19.631Z,5.31
2023-01-11T09:20:23.873Z,5.30
2023-01-11T09:25:26.578Z,5.28
2023-01-11T09:30:29.349Z,5.26
2023-01-11T09:35:32.006Z,5.23
2023-01-11T09:40:49.374Z,5.22
2023-01-11T09:45:53.183Z,5.22
2023-01-11T09:50:57.722Z,5.22
2023-01-11T09:56:05.079Z,5.23
2023-01-11T10:01:46.215Z,5.26
2023-01-11T10:07:12.480Z,5.30
2023-01-11T10:18:49.341Z,5.40
2023-01-11T10:24:12.076Z,5.43
2023-01-11T10:29:30.314Z,5.48
2023-01-11T10:34:52.389Z,5.53
2023-01-11T10:40:39.833Z,5.56
2023-01-11T10:45:50.754Z,5.62
2023-01-11T10:51:17.759Z,5.66
2023-01-11T10:57:02.953Z,5.70
2023-01-11T11:02:13.534Z,5.73
2023-01-11T11:07:25.991Z,5.77
2023-01-11T11:12:31.700Z,5.81
2023-01-11T11:17:36.925Z,5.86
2023-01-11T11:22:39.483Z,5.89
2023-01-11T11:27:47.727Z,5.92
2023-01-11T11:32:59.797Z,5.96
2023-01-11T11:38:02.536Z,5.99
2023-01-11T11:43:22.235Z,6.01
2023-01-11T11:48:27.408Z,6.05
2023-01-11T11:53:35.503Z,6.06
2023-01-11T11:58:41.147Z,6.08
2023-01-11T12:03:43.836Z,6.11
2023-01-11T12:08:46.487Z,6.15
2023-01-11T12:14:02.176Z,6.19
2023-01-11T12:19:50.677Z,6.23
2023-01-11T12:25:05.867Z,6.27
2023-01-11T12:30:46.452Z,6.31
2023-01-11T12:36:03.147Z,6.36
2023-01-11T12:41:42.663Z,6.39
2023-01-11T12:47:04.199Z,6.42
2023-01-11T12:52:12.696Z,6.44
2023-01-11T12:57:34.092Z,6.46
2023-01-11T13:02:55.090Z,6.50
2023-01-11T13:08:16.387Z,6.51
2023-01-11T13:13:29.803Z,6.53
2023-01-11T13:18:59.380Z,6.56
2023-01-11T13:24:12.369Z,6.58
2023-01-11T13:29:37.708Z,6.59
2023-01-11T13:34:47.547Z,6.62
2023-01-11T13:39:57.034Z,6.66
2023-01-11T13:45:09.248Z,6.68
2023-01-11T13:50:32.130Z,6.70
2023-01-11T13:56:09.841Z,6.71
2023-01-11T14:01:17.564Z,6.73
2023-01-11T14:06:42.006Z,6.75
2023-01-11T14:12:05.429Z,6.78
2023-01-11T14:17:24.579Z,6.81
2023-01-11T14:22:41.347Z,6.83
2023-01-11T14:27:59.192Z,6.86
2023-01-11T14:33:36.710Z,6.88
2023-01-11T14:39:15.722Z,6.89
2023-01-11T14:44:32.914Z,6.91
2023-01-11T14:49:57.959Z,6.92
2023-01-11T14:55:05.348Z,6.95
2023-01-11T15:00:34.311Z,6.96
2023-01-11T15:05:54.648Z,6.97
2023-01-11T15:11:02.233Z,6.99
2023-01-11T15:16:28.370Z,6.99
2023-01-11T15:21:35.627Z,7.01
2023-01-11T15:26:48.730Z,7.02
2023-01-11T15:31:54.266Z,7.02
2023-01-11T15:36:59.939Z,7.02
2023-01-11T15:42:16.167Z,7.03
2023-01-11T15:47:42.605Z,7.03
2023-01-11T15:53:17.749Z,7.05
2023-01-11T15:58:45.723Z,7.07
2023-01-11T16:04:00.412Z,7.11
2023-01-11T16:09:41.968Z,7.13
2023-01-11T16:14:56.501Z,7.15
2023-01-11T16:20:18.934Z,7.16
2023-01-11T16:25:25.045Z,7.18
2023-01-11T16:30:28.811Z,7.19
2023-01-11T16:35:31.344Z,7.20
2023-01-11T16:40:37.752Z,7.22
2023-01-11T16:45:43.543Z,7.24
2023-01-11T16:50:50.994Z,7.26
2023-01-11T16:56:09.588Z,7.28
2023-01-11T17:01:15.327Z,7.28
2023-01-11T17:06:22.038Z,7.29
2023-01-11T17:11:39.574Z,7.31
2023-01-11T17:16:49.093Z,7.32
2023-01-11T17:22:05.279Z,7.33
2023-01-11T17:27:18.454Z,7.34
2023-01-11T17:32:35.565Z,7.35
2023-01-11T17:37:39.072Z,7.37
2023-01-11T17:43:00.161Z,7.39
2023-01-11T17:48:12.934Z,7.40
2023-01-11T17:53:20.977Z,7.42
2023-01-11T17:58:28.773Z,7.40
2023-01-11T18:03:38.940Z,7.37
2023-01-11T18:08:47.899Z,7.35
2023-01-11T18:13:52.890Z,7.33
2023-01-11T18:18:56.021Z,7.32
2023-01-11T18:24:07.792Z,7.33
2023-01-11T18:29:42.289Z,7.35
2023-01-11T18:34:48.068Z,7.35
2023-01-11T18:39:52.383Z,7.33
2023-01-11T18:44:55.119Z,7.29
2023-01-11T18:49:58.029Z,7.25
2023-01-11T18:55:00.589Z,7.20
2023-01-11T19:00:03.683Z,7.14
2023-01-11T19:05:09.995Z,7.10
2023-01-11T19:10:19.241Z,7.04
2023-01-11T19:15:21.808Z,6.97
2023-01-11T19:20:24.690Z,6.93
2023-01-11T19:25:28.336Z,6.89
2023-01-11T19:30:31.394Z,6.86
2023-01-11T19:35:33.951Z,6.83
2023-01-11T19:40:36.634Z,6.80
2023-01-11T19:45:39.325Z,6.79
2023-01-11T19:50:42.072Z,6.79
2023-01-11T19:55:44.721Z,6.76
2023-01-11T20:00:47.418Z,6.73
2023-01-11T20:05:50.430Z,6.70
2023-01-11T20:10:53.705Z,6.67
2023-01-11T20:15:56.337Z,6.62
2023-01-11T20:20:59.350Z,6.57
2023-01-11T20:26:04.440Z,6.52
2023-01-11T20:31:07.850Z,6.47
2023-01-11T20:36:16.208Z,6.42
2023-01-11T20:41:41.667Z,6.36
2023-01-11T20:46:47.873Z,6.30
2023-01-11T20:51:51.016Z,6.24
2023-01-11T20:56:53.755Z,6.18
2023-01-11T21:01:56.353Z,6.14
2023-01-11T21:06:58.967Z,6.11
2023-01-11T21:12:01.587Z,6.09
2023-01-11T21:17:04.269Z,6.05
2023-01-11T21:22:07.610Z,6.01
2023-01-11T21:27:10.573Z,5.97
2023-01-11T21:32:13.165Z,5.91
2023-01-11T21:37:15.864Z,5.90
2023-01-11T21:42:19.183Z,5.86
2023-01-11T21:47:22.279Z,5.81
2023-01-11T21:52:25.010Z,5.77
2023-01-11T21:57:27.698Z,5.70
2023-01-11T22:02:30.240Z,5.64
2023-01-11T22:07:33.389Z,5.60
2023-01-11T22:12:36.143Z,5.57
2023-01-11T22:17:39.101Z,5.55
2023-01-11T22:22:41.851Z,5.52
2023-01-11T22:27:44.526Z,5.49
2023-01-11T22:32:47.975Z,5.49
2023-01-11T22:37:50.663Z,5.47
2023-01-11T22:42:53.274Z,5.44
2023-01-11T22:47:59.179Z,5.43
2023-01-11T22:53:02.217Z,5.40
2023-01-11T22:58:05.083Z,5.39
2023-01-11T23:03:07.912Z,5.37
2023-01-11T23:08:10.768Z,5.35
2023-01-11T23:13:32.209Z,5.32
2023-01-11T23:18:34.724Z,5.28
2023-01-11T23:23:40.409Z,5.24
2023-01-11T23:28:43.025Z,5.23
2023-01-11T23:33:51.869Z,5.20
2023-01-11T23:38:54.398Z,5.15
2023-01-11T23:43:57.895Z,5.12
2023-01-11T23:49:03.807Z,5.09
2023-01-11T23:54:06.997Z,5.04
2023-01-11T23:59:09.792Z,5.01
